Terminal Aerodrome Forecast
Issued by NWS

Home | Current Version | Previous Version | Text Only | Print | Product List | Glossary On
Versions: 1 2 3 4 5 6 7 8 9 10 11 12 13 14 15 16
000
FTUS45 KVEF 231100
TAFBIH
TAF
KBIH 231128Z 2312/2412 35012G20KT P6SM SCT120 SCT250
     FM232100 12009KT P6SM BKN250
     FM240600 33006KT P6SM SCT250=

USA.gov is the U.S. government's official web portal to all federal, state and local government web resources and services.